sensor_id;sensor_type;location;lat;lon;timestamp;P1;P2;P0
49064;PMS5003;34876;51.464;-0.150;2022-11-20T00:01:40;1;1;
49064;PMS5003;34876;51.464;-0.150;2022-11-20T00:04:09;2;2;
49064;PMS5003;34876;51.464;-0.150;2022-11-20T00:06:40;2;2;
49064;PMS5003;34876;51.464;-0.150;2022-11-20T00:09:09;1;1;
49064;PMS5003;34876;51.464;-0.150;2022-11-20T00:11:38;2;2;
49064;PMS5003;34876;51.464;-0.150;2022-11-20T00:14:08;2;2;
49064;PMS5003;34876;51.464;-0.150;2022-11-20T00:16:38;4;1;
49064;PMS5003;34876;51.464;-0.150;2022-11-20T00:19:08;2;2;
49064;PMS5003;34876;51.464;-0.150;2022-11-20T00:21:37;0;0;
49064;PMS5003;34876;51.464;-0.150;2022-11-20T00:24:08;4;2;
49064;PMS5003;34876;51.464;-0.150;2022-11-20T00:26:38;3;1;
49064;PMS5003;34876;51.464;-0.150;2022-11-20T00:29:08;3;3;
49064;PMS5003;34876;51.464;-0.150;2022-11-20T00:31:38;2;2;
49064;PMS5003;34876;51.464;-0.150;2022-11-20T00:34:08;4;4;
49064;PMS5003;34876;51.464;-0.150;2022-11-20T00:36:37;3;3;
49064;PMS5003;34876;51.464;-0.150;2022-11-20T00:39:07;3;2;
49064;PMS5003;34876;51.464;-0.150;2022-11-20T00:41:37;1;1;
49064;PMS5003;34876;51.464;-0.150;2022-11-20T00:44:07;3;3;
49064;PMS5003;34876;51.464;-0.150;2022-11-20T00:46:36;3;3;
49064;PMS5003;34876;51.464;-0.150;2022-11-20T00:49:05;1;1;
49064;PMS5003;34876;51.464;-0.150;2022-11-20T00:51:33;2;2;
49064;PMS5003;34876;51.464;-0.150;2022-11-20T00:54:03;1;1;
49064;PMS5003;34876;51.464;-0.150;2022-11-20T00:56:32;1;1;
49064;PMS5003;34876;51.464;-0.150;2022-11-20T00:59:01;4;4;
49064;PMS5003;34876;51.464;-0.150;2022-11-20T01:03:21;15;14;
49064;PMS5003;34876;51.464;-0.150;2022-11-20T01:05:50;13;13;
49064;PMS5003;34876;51.464;-0.150;2022-11-20T01:08:19;16;16;
49064;PMS5003;34876;51.464;-0.150;2022-11-20T01:10:48;15;15;
49064;PMS5003;34876;51.464;-0.150;2022-11-20T01:13:17;14;12;
49064;PMS5003;34876;51.464;-0.150;2022-11-20T01:15:46;12;11;
49064;PMS5003;34876;51.464;-0.150;2022-11-20T01:18:15;13;12;
49064;PMS5003;34876;51.464;-0.150;2022-11-20T01:20:44;14;12;
49064;PMS5003;34876;51.464;-0.150;2022-11-20T01:23:13;17;15;
49064;PMS5003;34876;51.464;-0.150;2022-11-20T01:25:42;14;12;
49064;PMS5003;34876;51.464;-0.150;2022-11-20T01:28:11;12;11;
49064;PMS5003;34876;51.464;-0.150;2022-11-20T01:30:41;12;12;
49064;PMS5003;34876;51.464;-0.150;2022-11-20T01:33:10;14;14;
49064;PMS5003;34876;51.464;-0.150;2022-11-20T01:35:40;10;10;
49064;PMS5003;34876;51.464;-0.150;2022-11-20T01:38:10;14;14;
49064;PMS5003;34876;51.464;-0.150;2022-11-20T01:40:40;12;12;
49064;PMS5003;34876;51.464;-0.150;2022-11-20T01:43:12;12;12;
49064;PMS5003;34876;51.464;-0.150;2022-11-20T01:45:52;16;14;
49064;PMS5003;34876;51.464;-0.150;2022-11-20T01:48:30;14;12;
49064;PMS5003;34876;51.464;-0.150;2022-11-20T01:51:06;15;14;
49064;PMS5003;34876;51.464;-0.150;2022-11-20T01:53:46;14;14;
49064;PMS5003;34876;51.464;-0.150;2022-11-20T01:56:17;12;11;
49064;PMS5003;34876;51.464;-0.150;2022-11-20T01:58:48;12;11;
49064;PMS5003;34876;51.464;-0.150;2022-11-20T02:01:22;13;12;
49064;PMS5003;34876;51.464;-0.150;2022-11-20T02:03:51;14;12;
49064;PMS5003;34876;51.464;-0.150;2022-11-20T02:06:23;13;13;
49064;PMS5003;34876;51.464;-0.150;2022-11-20T02:08:55;10;10;
49064;PMS5003;34876;51.464;-0.150;2022-11-20T02:11:25;14;12;
49064;PMS5003;34876;51.464;-0.150;2022-11-20T02:13:55;12;10;
49064;PMS5003;34876;51.464;-0.150;2022-11-20T02:16:25;12;11;
49064;PMS5003;34876;51.464;-0.150;2022-11-20T02:18:58;15;12;
49064;PMS5003;34876;51.464;-0.150;2022-11-20T02:21:33;16;13;
49064;PMS5003;34876;51.464;-0.150;2022-11-20T02:24:07;13;12;
49064;PMS5003;34876;51.464;-0.150;2022-11-20T02:26:43;12;10;
49064;PMS5003;34876;51.464;-0.150;2022-11-20T02:29:19;11;11;
49064;PMS5003;34876;51.464;-0.150;2022-11-20T02:31:55;13;12;
49064;PMS5003;34876;51.464;-0.150;2022-11-20T02:34:26;13;12;
49064;PMS5003;34876;51.464;-0.150;2022-11-20T02:36:54;10;10;
49064;PMS5003;34876;51.464;-0.150;2022-11-20T02:39:26;10;10;
49064;PMS5003;34876;51.464;-0.150;2022-11-20T02:41:57;11;11;
49064;PMS5003;34876;51.464;-0.150;2022-11-20T02:44:25;12;12;
49064;PMS5003;34876;51.464;-0.150;2022-11-20T02:46:56;11;11;
49064;PMS5003;34876;51.464;-0.150;2022-11-20T02:49:26;9;9;
49064;PMS5003;34876;51.464;-0.150;2022-11-20T02:51:55;10;9;
49064;PMS5003;34876;51.464;-0.150;2022-11-20T02:54:23;11;10;
49064;PMS5003;34876;51.464;-0.150;2022-11-20T02:56:55;10;10;
49064;PMS5003;34876;51.464;-0.150;2022-11-20T02:59:24;10;10;
49064;PMS5003;34876;51.464;-0.150;2022-11-20T03:01:53;10;9;
49064;PMS5003;34876;51.464;-0.150;2022-11-20T03:04:21;12;11;
49064;PMS5003;34876;51.464;-0.150;2022-11-20T03:06:50;10;10;
49064;PMS5003;34876;51.464;-0.150;2022-11-20T03:09:19;11;11;
49064;PMS5003;34876;51.464;-0.150;2022-11-20T03:11:49;11;11;
49064;PMS5003;34876;51.464;-0.150;2022-11-20T03:14:18;10;9;
49064;PMS5003;34876;51.464;-0.150;2022-11-20T03:16:47;13;13;
49064;PMS5003;34876;51.464;-0.150;2022-11-20T03:19:16;11;11;
49064;PMS5003;34876;51.464;-0.150;2022-11-20T03:21:45;9;8;
49064;PMS5003;34876;51.464;-0.150;2022-11-20T03:24:15;10;10;
49064;PMS5003;34876;51.464;-0.150;2022-11-20T03:26:44;14;13;
49064;PMS5003;34876;51.464;-0.150;2022-11-20T03:29:13;13;11;
49064;PMS5003;34876;51.464;-0.150;2022-11-20T03:31:42;10;9;
49064;PMS5003;34876;51.464;-0.150;2022-11-20T03:34:11;9;9;
49064;PMS5003;34876;51.464;-0.150;2022-11-20T03:36:41;11;11;
49064;PMS5003;34876;51.464;-0.150;2022-11-20T03:39:11;10;9;
49064;PMS5003;34876;51.464;-0.150;2022-11-20T03:41:40;14;13;
49064;PMS5003;34876;51.464;-0.150;2022-11-20T03:44:10;9;9;
49064;PMS5003;34876;51.464;-0.150;2022-11-20T03:46:40;10;10;
49064;PMS5003;34876;51.464;-0.150;2022-11-20T03:49:09;9;9;
49064;PMS5003;34876;51.464;-0.150;2022-11-20T03:51:38;10;10;
49064;PMS5003;34876;51.464;-0.150;2022-11-20T03:54:07;12;12;
49064;PMS5003;34876;51.464;-0.150;2022-11-20T03:56:38;10;8;
49064;PMS5003;34876;51.464;-0.150;2022-11-20T03:59:09;12;10;
49064;PMS5003;34876;51.464;-0.150;2022-11-20T04:01:39;11;7;
49064;PMS5003;34876;51.464;-0.150;2022-11-20T04:04:08;8;8;
49064;PMS5003;34876;51.464;-0.150;2022-11-20T04:06:37;9;9;
49064;PMS5003;34876;51.464;-0.150;2022-11-20T04:09:06;9;7;
49064;PMS5003;34876;51.464;-0.150;2022-11-20T04:11:36;8;7;
49064;PMS5003;34876;51.464;-0.150;2022-11-20T04:14:11;10;10;
49064;PMS5003;34876;51.464;-0.150;2022-11-20T04:16:43;10;7;
49064;PMS5003;34876;51.464;-0.150;2022-11-20T04:19:12;8;8;
49064;PMS5003;34876;51.464;-0.150;2022-11-20T04:21:43;10;10;
49064;PMS5003;34876;51.464;-0.150;2022-11-20T04:24:12;11;11;
49064;PMS5003;34876;51.464;-0.150;2022-11-20T04:26:42;9;9;
49064;PMS5003;34876;51.464;-0.150;2022-11-20T04:29:12;8;8;
49064;PMS5003;34876;51.464;-0.150;2022-11-20T04:31:41;10;9;
49064;PMS5003;34876;51.464;-0.150;2022-11-20T04:34:10;8;8;
49064;PMS5003;34876;51.464;-0.150;2022-11-20T04:36:40;11;9;
49064;PMS5003;34876;51.464;-0.150;2022-11-20T04:39:12;8;8;
49064;PMS5003;34876;51.464;-0.150;2022-11-20T04:41:42;8;7;
49064;PMS5003;34876;51.464;-0.150;2022-11-20T04:44:11;11;8;
49064;PMS5003;34876;51.464;-0.150;2022-11-20T04:46:41;8;8;
49064;PMS5003;34876;51.464;-0.150;2022-11-20T04:49:11;9;9;
49064;PMS5003;34876;51.464;-0.150;2022-11-20T04:51:43;7;7;
49064;PMS5003;34876;51.464;-0.150;2022-11-20T04:54:12;6;6;
49064;PMS5003;34876;51.464;-0.150;2022-11-20T04:56:41;6;6;
49064;PMS5003;34876;51.464;-0.150;2022-11-20T04:59:10;10;6;
49064;PMS5003;34876;51.464;-0.150;2022-11-20T05:01:39;9;9;
49064;PMS5003;34876;51.464;-0.150;2022-11-20T05:04:08;6;6;
49064;PMS5003;34876;51.464;-0.150;2022-11-20T05:06:37;7;7;
49064;PMS5003;34876;51.464;-0.150;2022-11-20T05:09:06;7;7;
49064;PMS5003;34876;51.464;-0.150;2022-11-20T05:11:35;7;6;
49064;PMS5003;34876;51.464;-0.150;2022-11-20T05:14:05;4;4;
49064;PMS5003;34876;51.464;-0.150;2022-11-20T05:16:34;9;7;
49064;PMS5003;34876;51.464;-0.150;2022-11-20T05:19:04;6;5;
49064;PMS5003;34876;51.464;-0.150;2022-11-20T05:21:33;7;7;
49064;PMS5003;34876;51.464;-0.150;2022-11-20T05:24:02;6;6;
49064;PMS5003;34876;51.464;-0.150;2022-11-20T05:26:31;7;5;
49064;PMS5003;34876;51.464;-0.150;2022-11-20T05:29:01;6;6;
49064;PMS5003;34876;51.464;-0.150;2022-11-20T05:31:30;6;6;
49064;PMS5003;34876;51.464;-0.150;2022-11-20T05:33:59;7;7;
49064;PMS5003;34876;51.464;-0.150;2022-11-20T05:36:29;6;6;
49064;PMS5003;34876;51.464;-0.150;2022-11-20T05:38:58;5;5;
49064;PMS5003;34876;51.464;-0.150;2022-11-20T05:41:28;6;6;
49064;PMS5003;34876;51.464;-0.150;2022-11-20T05:43:57;7;4;
49064;PMS5003;34876;51.464;-0.150;2022-11-20T05:46:26;4;4;
49064;PMS5003;34876;51.464;-0.150;2022-11-20T05:48:56;6;4;
49064;PMS5003;34876;51.464;-0.150;2022-11-20T05:51:26;3;3;
49064;PMS5003;34876;51.464;-0.150;2022-11-20T05:53:56;4;4;
49064;PMS5003;34876;51.464;-0.150;2022-11-20T05:56:26;3;3;
49064;PMS5003;34876;51.464;-0.150;2022-11-20T05:58:55;4;4;
49064;PMS5003;34876;51.464;-0.150;2022-11-20T06:01:25;6;6;
49064;PMS5003;34876;51.464;-0.150;2022-11-20T06:03:54;5;5;
49064;PMS5003;34876;51.464;-0.150;2022-11-20T06:06:24;4;4;
49064;PMS5003;34876;51.464;-0.150;2022-11-20T06:08:54;6;5;
49064;PMS5003;34876;51.464;-0.150;2022-11-20T06:11:23;4;4;
49064;PMS5003;34876;51.464;-0.150;2022-11-20T06:13:52;3;3;
49064;PMS5003;34876;51.464;-0.150;2022-11-20T06:16:21;4;4;
49064;PMS5003;34876;51.464;-0.150;2022-11-20T06:18:51;6;5;
49064;PMS5003;34876;51.464;-0.150;2022-11-20T06:21:21;5;5;
49064;PMS5003;34876;51.464;-0.150;2022-11-20T06:23:51;5;4;
49064;PMS5003;34876;51.464;-0.150;2022-11-20T06:26:23;6;6;
49064;PMS5003;34876;51.464;-0.150;2022-11-20T06:28:53;4;4;
49064;PMS5003;34876;51.464;-0.150;2022-11-20T06:31:24;3;2;
49064;PMS5003;34876;51.464;-0.150;2022-11-20T06:33:55;5;5;
49064;PMS5003;34876;51.464;-0.150;2022-11-20T06:36:24;4;4;
49064;PMS5003;34876;51.464;-0.150;2022-11-20T06:38:53;4;4;
49064;PMS5003;34876;51.464;-0.150;2022-11-20T06:41:22;4;2;
49064;PMS5003;34876;51.464;-0.150;2022-11-20T06:43:51;4;4;
49064;PMS5003;34876;51.464;-0.150;2022-11-20T06:46:20;4;4;
49064;PMS5003;34876;51.464;-0.150;2022-11-20T06:48:50;5;5;
49064;PMS5003;34876;51.464;-0.150;2022-11-20T06:51:19;3;3;
49064;PMS5003;34876;51.464;-0.150;2022-11-20T06:53:48;5;5;
49064;PMS5003;34876;51.464;-0.150;2022-11-20T06:56:18;4;4;
49064;PMS5003;34876;51.464;-0.150;2022-11-20T06:58:47;5;5;
49064;PMS5003;34876;51.464;-0.150;2022-11-20T07:01:16;3;3;
49064;PMS5003;34876;51.464;-0.150;2022-11-20T07:03:48;8;5;
49064;PMS5003;34876;51.464;-0.150;2022-11-20T07:06:17;5;4;
49064;PMS5003;34876;51.464;-0.150;2022-11-20T07:08:46;4;4;
49064;PMS5003;34876;51.464;-0.150;2022-11-20T07:11:15;6;5;
49064;PMS5003;34876;51.464;-0.150;2022-11-20T07:13:43;3;3;
49064;PMS5003;34876;51.464;-0.150;2022-11-20T07:16:13;4;4;
49064;PMS5003;34876;51.464;-0.150;2022-11-20T07:18:42;5;4;
49064;PMS5003;34876;51.464;-0.150;2022-11-20T07:21:12;6;4;
49064;PMS5003;34876;51.464;-0.150;2022-11-20T07:23:41;4;4;
49064;PMS5003;34876;51.464;-0.150;2022-11-20T07:26:10;5;5;
49064;PMS5003;34876;51.464;-0.150;2022-11-20T07:28:39;3;3;
49064;PMS5003;34876;51.464;-0.150;2022-11-20T07:31:09;4;2;
49064;PMS5003;34876;51.464;-0.150;2022-11-20T07:33:38;4;4;
49064;PMS5003;34876;51.464;-0.150;2022-11-20T07:36:08;4;4;
49064;PMS5003;34876;51.464;-0.150;2022-11-20T07:38:37;3;3;
49064;PMS5003;34876;51.464;-0.150;2022-11-20T07:41:06;3;3;
49064;PMS5003;34876;51.464;-0.150;2022-11-20T07:43:36;3;3;
49064;PMS5003;34876;51.464;-0.150;2022-11-20T07:46:05;4;4;
49064;PMS5003;34876;51.464;-0.150;2022-11-20T07:48:34;2;2;
49064;PMS5003;34876;51.464;-0.150;2022-11-20T07:51:03;3;3;
49064;PMS5003;34876;51.464;-0.150;2022-11-20T07:53:32;3;3;
49064;PMS5003;34876;51.464;-0.150;2022-11-20T07:56:02;5;3;
49064;PMS5003;34876;51.464;-0.150;2022-11-20T07:58:31;3;3;
49064;PMS5003;34876;51.464;-0.150;2022-11-20T08:01:04;5;5;
49064;PMS5003;34876;51.464;-0.150;2022-11-20T08:03:34;2;2;
49064;PMS5003;34876;51.464;-0.150;2022-11-20T08:06:03;1;1;
49064;PMS5003;34876;51.464;-0.150;2022-11-20T08:08:34;3;3;
49064;PMS5003;34876;51.464;-0.150;2022-11-20T08:11:03;4;4;
49064;PMS5003;34876;51.464;-0.150;2022-11-20T08:13:32;3;2;
49064;PMS5003;34876;51.464;-0.150;2022-11-20T08:16:02;0;0;
49064;PMS5003;34876;51.464;-0.150;2022-11-20T08:18:32;3;3;
49064;PMS5003;34876;51.464;-0.150;2022-11-20T08:21:01;4;3;
49064;PMS5003;34876;51.464;-0.150;2022-11-20T08:23:31;3;3;
49064;PMS5003;34876;51.464;-0.150;2022-11-20T08:26:00;2;2;
49064;PMS5003;34876;51.464;-0.150;2022-11-20T08:28:29;3;3;
49064;PMS5003;34876;51.464;-0.150;2022-11-20T08:30:59;5;5;
49064;PMS5003;34876;51.464;-0.150;2022-11-20T08:33:29;4;2;
49064;PMS5003;34876;51.464;-0.150;2022-11-20T08:35:59;1;1;
49064;PMS5003;34876;51.464;-0.150;2022-11-20T08:38:29;3;3;
49064;PMS5003;34876;51.464;-0.150;2022-11-20T08:40:58;2;2;
49064;PMS5003;34876;51.464;-0.150;2022-11-20T08:43:27;2;2;
49064;PMS5003;34876;51.464;-0.150;2022-11-20T08:45:56;3;3;
49064;PMS5003;34876;51.464;-0.150;2022-11-20T08:48:25;2;2;
49064;PMS5003;34876;51.464;-0.150;2022-11-20T08:50:54;4;3;
49064;PMS5003;34876;51.464;-0.150;2022-11-20T08:53:26;2;2;
49064;PMS5003;34876;51.464;-0.150;2022-11-20T08:55:56;4;4;
49064;PMS5003;34876;51.464;-0.150;2022-11-20T08:58:25;3;3;
49064;PMS5003;34876;51.464;-0.150;2022-11-20T09:00:55;3;3;
49064;PMS5003;34876;51.464;-0.150;2022-11-20T09:03:26;4;4;
49064;PMS5003;34876;51.464;-0.150;2022-11-20T09:05:56;4;2;
49064;PMS5003;34876;51.464;-0.150;2022-11-20T09:08:26;3;3;
49064;PMS5003;34876;51.464;-0.150;2022-11-20T09:11:01;6;6;
49064;PMS5003;34876;51.464;-0.150;2022-11-20T09:13:32;2;2;
49064;PMS5003;34876;51.464;-0.150;2022-11-20T09:16:04;4;4;
49064;PMS5003;34876;51.464;-0.150;2022-11-20T09:18:34;3;3;
49064;PMS5003;34876;51.464;-0.150;2022-11-20T09:21:10;1;1;
49064;PMS5003;34876;51.464;-0.150;2022-11-20T09:23:40;4;4;
49064;PMS5003;34876;51.464;-0.150;2022-11-20T09:26:11;2;2;
49064;PMS5003;34876;51.464;-0.150;2022-11-20T09:28:42;3;3;
49064;PMS5003;34876;51.464;-0.150;2022-11-20T09:31:14;4;4;
49064;PMS5003;34876;51.464;-0.150;2022-11-20T09:33:49;4;4;
49064;PMS5003;34876;51.464;-0.150;2022-11-20T09:36:19;0;0;
49064;PMS5003;34876;51.464;-0.150;2022-11-20T09:38:48;3;3;
49064;PMS5003;34876;51.464;-0.150;2022-11-20T09:41:24;3;3;
49064;PMS5003;34876;51.464;-0.150;2022-11-20T09:44:02;2;2;
49064;PMS5003;34876;51.464;-0.150;2022-11-20T09:46:48;3;2;
49064;PMS5003;34876;51.464;-0.150;2022-11-20T09:49:24;2;2;
49064;PMS5003;34876;51.464;-0.150;2022-11-20T09:52:05;2;2;
49064;PMS5003;34876;51.464;-0.150;2022-11-20T09:54:43;2;2;
49064;PMS5003;34876;51.464;-0.150;2022-11-20T09:57:13;2;1;
49064;PMS5003;34876;51.464;-0.150;2022-11-20T09:59:48;4;3;
49064;PMS5003;34876;51.464;-0.150;2022-11-20T10:02:25;0;0;
49064;PMS5003;34876;51.464;-0.150;2022-11-20T10:05:00;2;2;
49064;PMS5003;34876;51.464;-0.150;2022-11-20T10:07:36;2;2;
49064;PMS5003;34876;51.464;-0.150;2022-11-20T10:10:14;6;4;
49064;PMS5003;34876;51.464;-0.150;2022-11-20T10:12:50;2;2;
49064;PMS5003;34876;51.464;-0.150;2022-11-20T10:15:33;2;2;
49064;PMS5003;34876;51.464;-0.150;2022-11-20T10:18:10;3;3;
49064;PMS5003;34876;51.464;-0.150;2022-11-20T10:20:51;3;1;
49064;PMS5003;34876;51.464;-0.150;2022-11-20T10:23:35;3;2;
49064;PMS5003;34876;51.464;-0.150;2022-11-20T10:26:17;3;3;
49064;PMS5003;34876;51.464;-0.150;2022-11-20T10:28:54;3;3;
49064;PMS5003;34876;51.464;-0.150;2022-11-20T10:31:36;3;3;
49064;PMS5003;34876;51.464;-0.150;2022-11-20T10:34:12;1;1;
49064;PMS5003;34876;51.464;-0.150;2022-11-20T10:36:50;2;2;
49064;PMS5003;34876;51.464;-0.150;2022-11-20T10:39:25;3;3;
49064;PMS5003;34876;51.464;-0.150;2022-11-20T10:42:01;1;1;
49064;PMS5003;34876;51.464;-0.150;2022-11-20T10:44:30;4;2;
49064;PMS5003;34876;51.464;-0.150;2022-11-20T10:46:59;4;4;
49064;PMS5003;34876;51.464;-0.150;2022-11-20T10:49:28;3;3;
49064;PMS5003;34876;51.464;-0.150;2022-11-20T10:52:03;3;3;
49064;PMS5003;34876;51.464;-0.150;2022-11-20T10:54:41;2;2;
49064;PMS5003;34876;51.464;-0.150;2022-11-20T10:57:19;2;2;
49064;PMS5003;34876;51.464;-0.150;2022-11-20T10:59:59;2;2;
49064;PMS5003;34876;51.464;-0.150;2022-11-20T11:02:33;2;2;
49064;PMS5003;34876;51.464;-0.150;2022-11-20T11:05:10;6;4;
49064;PMS5003;34876;51.464;-0.150;2022-11-20T11:07:47;3;3;
49064;PMS5003;34876;51.464;-0.150;2022-11-20T11:10:22;3;3;
49064;PMS5003;34876;51.464;-0.150;2022-11-20T11:12:55;3;3;
49064;PMS5003;34876;51.464;-0.150;2022-11-20T11:15:26;3;2;
49064;PMS5003;34876;51.464;-0.150;2022-11-20T11:17:57;5;3;
49064;PMS5003;34876;51.464;-0.150;2022-11-20T11:20:25;4;4;
49064;PMS5003;34876;51.464;-0.150;2022-11-20T11:22:55;4;4;
49064;PMS5003;34876;51.464;-0.150;2022-11-20T11:25:27;4;3;
49064;PMS5003;34876;51.464;-0.150;2022-11-20T11:27:59;4;3;
49064;PMS5003;34876;51.464;-0.150;2022-11-20T11:30:41;4;4;
49064;PMS5003;34876;51.464;-0.150;2022-11-20T11:33:12;2;2;
49064;PMS5003;34876;51.464;-0.150;2022-11-20T11:35:48;1;1;
49064;PMS5003;34876;51.464;-0.150;2022-11-20T11:38:21;2;2;
49064;PMS5003;34876;51.464;-0.150;2022-11-20T11:40:55;3;2;
49064;PMS5003;34876;51.464;-0.150;2022-11-20T11:43:28;2;2;
49064;PMS5003;34876;51.464;-0.150;2022-11-20T11:45:59;5;5;
49064;PMS5003;34876;51.464;-0.150;2022-11-20T11:48:29;2;2;
49064;PMS5003;34876;51.464;-0.150;2022-11-20T11:50:59;5;3;
49064;PMS5003;34876;51.464;-0.150;2022-11-20T11:53:28;3;3;
49064;PMS5003;34876;51.464;-0.150;2022-11-20T11:55:58;1;1;
49064;PMS5003;34876;51.464;-0.150;2022-11-20T11:58:40;3;3;
49064;PMS5003;34876;51.464;-0.150;2022-11-20T12:01:20;2;2;
49064;PMS5003;34876;51.464;-0.150;2022-11-20T12:04:00;3;3;
49064;PMS5003;34876;51.464;-0.150;2022-11-20T12:06:32;3;3;
49064;PMS5003;34876;51.464;-0.150;2022-11-20T12:09:07;3;2;
49064;PMS5003;34876;51.464;-0.150;2022-11-20T12:11:43;1;1;
49064;PMS5003;34876;51.464;-0.150;2022-11-20T12:14:15;5;4;
49064;PMS5003;34876;51.464;-0.150;2022-11-20T12:16:48;2;2;
49064;PMS5003;34876;51.464;-0.150;2022-11-20T12:19:16;3;3;
49064;PMS5003;34876;51.464;-0.150;2022-11-20T12:21:49;2;2;
49064;PMS5003;34876;51.464;-0.150;2022-11-20T12:24:31;2;2;
49064;PMS5003;34876;51.464;-0.150;2022-11-20T12:27:13;4;4;
49064;PMS5003;34876;51.464;-0.150;2022-11-20T12:29:58;4;4;
49064;PMS5003;34876;51.464;-0.150;2022-11-20T12:32:38;4;4;
49064;PMS5003;34876;51.464;-0.150;2022-11-20T12:35:47;2;2;
49064;PMS5003;34876;51.464;-0.150;2022-11-20T12:39:02;4;3;
49064;PMS5003;34876;51.464;-0.150;2022-11-20T12:41:51;2;1;
49064;PMS5003;34876;51.464;-0.150;2022-11-20T12:44:52;2;2;
49064;PMS5003;34876;51.464;-0.150;2022-11-20T12:47:37;3;3;
49064;PMS5003;34876;51.464;-0.150;2022-11-20T12:50:19;2;2;
49064;PMS5003;34876;51.464;-0.150;2022-11-20T12:52:57;4;3;
49064;PMS5003;34876;51.464;-0.150;2022-11-20T12:55:36;3;3;
49064;PMS5003;34876;51.464;-0.150;2022-11-20T12:58:17;3;3;
49064;PMS5003;34876;51.464;-0.150;2022-11-20T13:00:58;2;2;
49064;PMS5003;34876;51.464;-0.150;2022-11-20T13:03:37;5;1;
49064;PMS5003;34876;51.464;-0.150;2022-11-20T13:06:13;3;3;
49064;PMS5003;34876;51.464;-0.150;2022-11-20T13:08:48;3;3;
49064;PMS5003;34876;51.464;-0.150;2022-11-20T13:11:23;4;4;
49064;PMS5003;34876;51.464;-0.150;2022-11-20T13:14:08;3;3;
49064;PMS5003;34876;51.464;-0.150;2022-11-20T13:16:48;4;4;
49064;PMS5003;34876;51.464;-0.150;2022-11-20T13:19:23;3;3;
49064;PMS5003;34876;51.464;-0.150;2022-11-20T13:21:54;2;2;
49064;PMS5003;34876;51.464;-0.150;2022-11-20T13:24:24;3;3;
49064;PMS5003;34876;51.464;-0.150;2022-11-20T13:27:27;2;2;
49064;PMS5003;34876;51.464;-0.150;2022-11-20T13:30:00;3;2;
49064;PMS5003;34876;51.464;-0.150;2022-11-20T13:32:47;1;1;
49064;PMS5003;34876;51.464;-0.150;2022-11-20T13:35:27;1;1;
49064;PMS5003;34876;51.464;-0.150;2022-11-20T13:38:00;1;1;
49064;PMS5003;34876;51.464;-0.150;2022-11-20T13:40:31;1;1;
49064;PMS5003;34876;51.464;-0.150;2022-11-20T13:43:07;3;3;
49064;PMS5003;34876;51.464;-0.150;2022-11-20T13:45:53;3;2;
49064;PMS5003;34876;51.464;-0.150;2022-11-20T13:48:26;1;1;
49064;PMS5003;34876;51.464;-0.150;2022-11-20T13:51:05;2;2;
49064;PMS5003;34876;51.464;-0.150;2022-11-20T13:53:47;5;4;
49064;PMS5003;34876;51.464;-0.150;2022-11-20T13:56:38;3;3;
49064;PMS5003;34876;51.464;-0.150;2022-11-20T13:59:23;1;1;
49064;PMS5003;34876;51.464;-0.150;2022-11-20T14:02:05;2;2;
49064;PMS5003;34876;51.464;-0.150;2022-11-20T14:04:42;2;2;
49064;PMS5003;34876;51.464;-0.150;2022-11-20T14:07:13;1;1;
49064;PMS5003;34876;51.464;-0.150;2022-11-20T14:09:49;1;1;
49064;PMS5003;34876;51.464;-0.150;2022-11-20T14:12:22;1;1;
49064;PMS5003;34876;51.464;-0.150;2022-11-20T14:14:56;1;1;
49064;PMS5003;34876;51.464;-0.150;2022-11-20T14:17:29;0;0;
49064;PMS5003;34876;51.464;-0.150;2022-11-20T14:20:00;3;3;
49064;PMS5003;34876;51.464;-0.150;2022-11-20T14:22:32;2;2;
49064;PMS5003;34876;51.464;-0.150;2022-11-20T14:25:04;2;2;
49064;PMS5003;34876;51.464;-0.150;2022-11-20T14:27:35;2;2;
49064;PMS5003;34876;51.464;-0.150;2022-11-20T14:30:11;0;0;
49064;PMS5003;34876;51.464;-0.150;2022-11-20T14:32:44;0;0;
49064;PMS5003;34876;51.464;-0.150;2022-11-20T14:35:18;2;2;
49064;PMS5003;34876;51.464;-0.150;2022-11-20T14:37:51;2;2;
49064;PMS5003;34876;51.464;-0.150;2022-11-20T14:40:23;2;2;
49064;PMS5003;34876;51.464;-0.150;2022-11-20T14:42:54;1;1;
49064;PMS5003;34876;51.464;-0.150;2022-11-20T14:45:25;2;2;
49064;PMS5003;34876;51.464;-0.150;2022-11-20T14:47:55;2;2;
49064;PMS5003;34876;51.464;-0.150;2022-11-20T14:50:26;2;2;
49064;PMS5003;34876;51.464;-0.150;2022-11-20T14:52:57;1;1;
49064;PMS5003;34876;51.464;-0.150;2022-11-20T14:55:29;5;2;
49064;PMS5003;34876;51.464;-0.150;2022-11-20T14:58:01;2;2;
49064;PMS5003;34876;51.464;-0.150;2022-11-20T15:00:32;2;2;
49064;PMS5003;34876;51.464;-0.150;2022-11-20T15:03:13;2;2;
49064;PMS5003;34876;51.464;-0.150;2022-11-20T15:05:45;1;1;
49064;PMS5003;34876;51.464;-0.150;2022-11-20T15:08:16;2;2;
49064;PMS5003;34876;51.464;-0.150;2022-11-20T15:10:46;4;3;
49064;PMS5003;34876;51.464;-0.150;2022-11-20T15:13:19;1;0;
49064;PMS5003;34876;51.464;-0.150;2022-11-20T15:15:54;1;1;
49064;PMS5003;34876;51.464;-0.150;2022-11-20T15:18:26;2;2;
49064;PMS5003;34876;51.464;-0.150;2022-11-20T15:21:00;1;1;
49064;PMS5003;34876;51.464;-0.150;2022-11-20T15:23:30;3;1;
49064;PMS5003;34876;51.464;-0.150;2022-11-20T15:26:00;2;2;
49064;PMS5003;34876;51.464;-0.150;2022-11-20T15:28:31;1;1;
49064;PMS5003;34876;51.464;-0.150;2022-11-20T15:31:08;4;3;
49064;PMS5003;34876;51.464;-0.150;2022-11-20T15:33:40;1;1;
49064;PMS5003;34876;51.464;-0.150;2022-11-20T15:36:10;4;3;
49064;PMS5003;34876;51.464;-0.150;2022-11-20T15:38:39;1;1;
49064;PMS5003;34876;51.464;-0.150;2022-11-20T15:41:09;7;6;
49064;PMS5003;34876;51.464;-0.150;2022-11-20T15:43:39;1;1;
49064;PMS5003;34876;51.464;-0.150;2022-11-20T15:46:10;3;1;
49064;PMS5003;34876;51.464;-0.150;2022-11-20T15:48:43;7;5;
49064;PMS5003;34876;51.464;-0.150;2022-11-20T15:51:17;3;1;
49064;PMS5003;34876;51.464;-0.150;2022-11-20T15:53:54;3;3;
49064;PMS5003;34876;51.464;-0.150;2022-11-20T15:56:24;3;3;
49064;PMS5003;34876;51.464;-0.150;2022-11-20T15:58:54;2;2;
49064;PMS5003;34876;51.464;-0.150;2022-11-20T16:01:24;2;2;
49064;PMS5003;34876;51.464;-0.150;2022-11-20T16:03:54;3;2;
49064;PMS5003;34876;51.464;-0.150;2022-11-20T16:06:24;1;1;
49064;PMS5003;34876;51.464;-0.150;2022-11-20T16:08:53;2;1;
49064;PMS5003;34876;51.464;-0.150;2022-11-20T16:11:22;2;2;
49064;PMS5003;34876;51.464;-0.150;2022-11-20T16:13:51;2;2;
49064;PMS5003;34876;51.464;-0.150;2022-11-20T16:16:22;2;2;
49064;PMS5003;34876;51.464;-0.150;2022-11-20T16:18:55;3;3;
49064;PMS5003;34876;51.464;-0.150;2022-11-20T16:21:25;0;0;
49064;PMS5003;34876;51.464;-0.150;2022-11-20T16:23:53;1;1;
49064;PMS5003;34876;51.464;-0.150;2022-11-20T16:26:24;2;2;
49064;PMS5003;34876;51.464;-0.150;2022-11-20T16:28:53;0;0;
49064;PMS5003;34876;51.464;-0.150;2022-11-20T16:31:24;2;2;
49064;PMS5003;34876;51.464;-0.150;2022-11-20T16:33:54;1;1;
49064;PMS5003;34876;51.464;-0.150;2022-11-20T16:36:26;3;3;
49064;PMS5003;34876;51.464;-0.150;2022-11-20T16:38:57;3;1;
49064;PMS5003;34876;51.464;-0.150;2022-11-20T16:41:29;2;2;
49064;PMS5003;34876;51.464;-0.150;2022-11-20T16:44:01;2;2;
49064;PMS5003;34876;51.464;-0.150;2022-11-20T16:46:34;3;3;
49064;PMS5003;34876;51.464;-0.150;2022-11-20T16:49:04;3;3;
49064;PMS5003;34876;51.464;-0.150;2022-11-20T16:51:36;2;2;
49064;PMS5003;34876;51.464;-0.150;2022-11-20T16:54:05;4;1;
49064;PMS5003;34876;51.464;-0.150;2022-11-20T16:56:37;1;1;
49064;PMS5003;34876;51.464;-0.150;2022-11-20T16:59:06;1;1;
49064;PMS5003;34876;51.464;-0.150;2022-11-20T17:01:35;2;1;
49064;PMS5003;34876;51.464;-0.150;2022-11-20T17:04:05;1;1;